sensor_id;sensor_type;location;lat;lon;timestamp;pressure;altitude;pressure_sealevel;temperature
8937;BMP180;4503;47.810;13.072;2022-07-23T00:00:02;96764.00;;;26.40
8937;BMP180;4503;47.810;13.072;2022-07-23T00:02:28;96772.00;;;26.50
8937;BMP180;4503;47.810;13.072;2022-07-23T00:04:54;96782.00;;;26.50
8937;BMP180;4503;47.810;13.072;2022-07-23T00:07:20;96797.00;;;26.50
8937;BMP180;4503;47.810;13.072;2022-07-23T00:09:45;96805.00;;;26.50
8937;BMP180;4503;47.810;13.072;2022-07-23T00:12:11;96831.00;;;26.50
8937;BMP180;4503;47.810;13.072;2022-07-23T00:14:37;96832.00;;;26.50
8937;BMP180;4503;47.810;13.072;2022-07-23T00:17:03;96842.00;;;26.60
8937;BMP180;4503;47.810;13.072;2022-07-23T00:19:29;96830.00;;;26.60
8937;BMP180;4503;47.810;13.072;2022-07-23T00:21:55;96833.00;;;26.50
8937;BMP180;4503;47.810;13.072;2022-07-23T00:24:21;96830.00;;;26.50
8937;BMP180;4503;47.810;13.072;2022-07-23T00:26:46;96821.00;;;26.50
8937;BMP180;4503;47.810;13.072;2022-07-23T00:29:12;96807.00;;;26.60
8937;BMP180;4503;47.810;13.072;2022-07-23T00:31:38;96786.00;;;26.60
8937;BMP180;4503;47.810;13.072;2022-07-23T00:34:04;96794.00;;;26.70
8937;BMP180;4503;47.810;13.072;2022-07-23T00:36:30;96796.00;;;26.70
8937;BMP180;4503;47.810;13.072;2022-07-23T00:38:57;96791.00;;;26.70
8937;BMP180;4503;47.810;13.072;2022-07-23T00:41:23;96780.00;;;26.70
8937;BMP180;4503;47.810;13.072;2022-07-23T00:43:48;96772.00;;;26.70
8937;BMP180;4503;47.810;13.072;2022-07-23T00:46:22;96756.00;;;26.70
8937;BMP180;4503;47.810;13.072;2022-07-23T00:48:48;96748.00;;;26.80
8937;BMP180;4503;47.810;13.072;2022-07-23T00:51:17;96747.00;;;26.80
8937;BMP180;4503;47.810;13.072;2022-07-23T00:53:44;96740.00;;;26.80
8937;BMP180;4503;47.810;13.072;2022-07-23T00:56:11;96748.00;;;26.80
8937;BMP180;4503;47.810;13.072;2022-07-23T00:58:39;96747.00;;;26.80
8937;BMP180;4503;47.810;13.072;2022-07-23T01:01:08;96716.00;;;26.80
8937;BMP180;4503;47.810;13.072;2022-07-23T01:03:34;96710.00;;;26.80
8937;BMP180;4503;47.810;13.072;2022-07-23T01:06:00;96704.00;;;26.80
8937;BMP180;4503;47.810;13.072;2022-07-23T01:08:26;96683.00;;;26.80
8937;BMP180;4503;47.810;13.072;2022-07-23T01:10:52;96683.00;;;26.90
8937;BMP180;4503;47.810;13.072;2022-07-23T01:13:18;96684.00;;;26.90
8937;BMP180;4503;47.810;13.072;2022-07-23T01:15:44;96690.00;;;27.00
8937;BMP180;4503;47.810;13.072;2022-07-23T01:18:10;96693.00;;;27.00
8937;BMP180;4503;47.810;13.072;2022-07-23T01:20:38;96688.00;;;27.00
8937;BMP180;4503;47.810;13.072;2022-07-23T01:23:04;96693.00;;;27.00
8937;BMP180;4503;47.810;13.072;2022-07-23T01:25:30;96689.00;;;27.00
8937;BMP180;4503;47.810;13.072;2022-07-23T01:27:55;96690.00;;;27.00
8937;BMP180;4503;47.810;13.072;2022-07-23T01:30:21;96694.00;;;27.00
8937;BMP180;4503;47.810;13.072;2022-07-23T01:32:47;96697.00;;;27.00
8937;BMP180;4503;47.810;13.072;2022-07-23T01:35:13;96701.00;;;27.00
8937;BMP180;4503;47.810;13.072;2022-07-23T01:37:39;96707.00;;;27.00
8937;BMP180;4503;47.810;13.072;2022-07-23T01:40:06;96690.00;;;27.00
8937;BMP180;4503;47.810;13.072;2022-07-23T01:42:32;96692.00;;;26.90
8937;BMP180;4503;47.810;13.072;2022-07-23T01:44:58;96681.00;;;26.90
8937;BMP180;4503;47.810;13.072;2022-07-23T01:47:25;96685.00;;;26.90
8937;BMP180;4503;47.810;13.072;2022-07-23T01:49:51;96675.00;;;27.00
8937;BMP180;4503;47.810;13.072;2022-07-23T01:52:17;96685.00;;;27.00
8937;BMP180;4503;47.810;13.072;2022-07-23T01:54:42;96679.00;;;27.00
8937;BMP180;4503;47.810;13.072;2022-07-23T01:57:09;96672.00;;;27.00
8937;BMP180;4503;47.810;13.072;2022-07-23T01:59:35;96690.00;;;27.00
8937;BMP180;4503;47.810;13.072;2022-07-23T02:02:01;96688.00;;;27.00
8937;BMP180;4503;47.810;13.072;2022-07-23T02:04:29;96690.00;;;27.00
8937;BMP180;4503;47.810;13.072;2022-07-23T02:06:54;96701.00;;;27.00
8937;BMP180;4503;47.810;13.072;2022-07-23T02:09:20;96710.00;;;27.00
8937;BMP180;4503;47.810;13.072;2022-07-23T02:11:46;96714.00;;;27.00
8937;BMP180;4503;47.810;13.072;2022-07-23T02:14:12;96703.00;;;27.00
8937;BMP180;4503;47.810;13.072;2022-07-23T02:16:38;96703.00;;;26.90
8937;BMP180;4503;47.810;13.072;2022-07-23T02:19:04;96706.00;;;26.90
8937;BMP180;4503;47.810;13.072;2022-07-23T02:21:30;96710.00;;;26.90
8937;BMP180;4503;47.810;13.072;2022-07-23T02:23:56;96717.00;;;26.90
8937;BMP180;4503;47.810;13.072;2022-07-23T02:26:22;96719.00;;;26.90
8937;BMP180;4503;47.810;13.072;2022-07-23T02:28:48;96724.00;;;26.90
8937;BMP180;4503;47.810;13.072;2022-07-23T02:31:13;96719.00;;;26.90
8937;BMP180;4503;47.810;13.072;2022-07-23T02:33:39;96727.00;;;26.90
8937;BMP180;4503;47.810;13.072;2022-07-23T02:36:05;96733.00;;;26.90
8937;BMP180;4503;47.810;13.072;2022-07-23T02:38:31;96748.00;;;26.90
8937;BMP180;4503;47.810;13.072;2022-07-23T02:40:57;96761.00;;;26.90
8937;BMP180;4503;47.810;13.072;2022-07-23T02:43:23;96781.00;;;26.90
8937;BMP180;4503;47.810;13.072;2022-07-23T02:45:49;96795.00;;;26.90
8937;BMP180;4503;47.810;13.072;2022-07-23T02:48:14;96799.00;;;26.90
8937;BMP180;4503;47.810;13.072;2022-07-23T02:50:40;96818.00;;;26.90
8937;BMP180;4503;47.810;13.072;2022-07-23T02:53:06;96887.00;;;27.00
8937;BMP180;4503;47.810;13.072;2022-07-23T02:55:32;96935.00;;;27.00
8937;BMP180;4503;47.810;13.072;2022-07-23T02:57:57;96936.00;;;27.00
8937;BMP180;4503;47.810;13.072;2022-07-23T03:00:24;96943.00;;;27.00
8937;BMP180;4503;47.810;13.072;2022-07-23T03:02:49;96940.00;;;27.00
8937;BMP180;4503;47.810;13.072;2022-07-23T03:05:15;96930.00;;;27.10
8937;BMP180;4503;47.810;13.072;2022-07-23T03:07:41;96938.00;;;27.10
8937;BMP180;4503;47.810;13.072;2022-07-23T03:10:07;96950.00;;;27.20
8937;BMP180;4503;47.810;13.072;2022-07-23T03:12:34;96959.00;;;27.20
8937;BMP180;4503;47.810;13.072;2022-07-23T03:15:00;96948.00;;;27.30
8937;BMP180;4503;47.810;13.072;2022-07-23T03:17:25;96948.00;;;27.30
8937;BMP180;4503;47.810;13.072;2022-07-23T03:19:51;96949.00;;;27.40
8937;BMP180;4503;47.810;13.072;2022-07-23T03:22:17;96949.00;;;27.40
8937;BMP180;4503;47.810;13.072;2022-07-23T03:24:43;96959.00;;;27.50
8937;BMP180;4503;47.810;13.072;2022-07-23T03:27:27;96953.00;;;27.50
8937;BMP180;4503;47.810;13.072;2022-07-23T03:29:55;96956.00;;;27.50
8937;BMP180;4503;47.810;13.072;2022-07-23T03:32:23;96951.00;;;27.50
8937;BMP180;4503;47.810;13.072;2022-07-23T03:34:50;96948.00;;;27.40
8937;BMP180;4503;47.810;13.072;2022-07-23T03:37:17;96944.00;;;27.40
8937;BMP180;4503;47.810;13.072;2022-07-23T03:39:43;96947.00;;;27.40
8937;BMP180;4503;47.810;13.072;2022-07-23T03:42:10;96949.00;;;27.30
8937;BMP180;4503;47.810;13.072;2022-07-23T03:44:36;96947.00;;;27.30
8937;BMP180;4503;47.810;13.072;2022-07-23T03:47:04;96948.00;;;27.30
8937;BMP180;4503;47.810;13.072;2022-07-23T03:49:31;96943.00;;;27.30
8937;BMP180;4503;47.810;13.072;2022-07-23T03:51:57;96939.00;;;27.40
8937;BMP180;4503;47.810;13.072;2022-07-23T03:54:23;96939.00;;;27.40
8937;BMP180;4503;47.810;13.072;2022-07-23T03:56:49;96932.00;;;27.40
8937;BMP180;4503;47.810;13.072;2022-07-23T03:59:14;96922.00;;;27.40
8937;BMP180;4503;47.810;13.072;2022-07-23T04:01:40;96917.00;;;27.40
8937;BMP180;4503;47.810;13.072;2022-07-23T04:04:06;96928.00;;;27.40
8937;BMP180;4503;47.810;13.072;2022-07-23T04:06:34;96924.00;;;27.30
8937;BMP180;4503;47.810;13.072;2022-07-23T04:09:00;96936.00;;;27.30
8937;BMP180;4503;47.810;13.072;2022-07-23T04:11:26;96933.00;;;27.30
8937;BMP180;4503;47.810;13.072;2022-07-23T04:13:52;96941.00;;;27.30
8937;BMP180;4503;47.810;13.072;2022-07-23T04:16:17;96937.00;;;27.30
8937;BMP180;4503;47.810;13.072;2022-07-23T04:18:43;96939.00;;;27.30
8937;BMP180;4503;47.810;13.072;2022-07-23T04:21:09;96933.00;;;27.30
8937;BMP180;4503;47.810;13.072;2022-07-23T04:23:35;96925.00;;;27.30
8937;BMP180;4503;47.810;13.072;2022-07-23T04:26:01;96919.00;;;27.40
8937;BMP180;4503;47.810;13.072;2022-07-23T04:28:27;96909.00;;;27.40
8937;BMP180;4503;47.810;13.072;2022-07-23T04:30:56;96906.00;;;27.50
8937;BMP180;4503;47.810;13.072;2022-07-23T04:33:21;96909.00;;;27.50
8937;BMP180;4503;47.810;13.072;2022-07-23T04:35:47;96922.00;;;27.50
8937;BMP180;4503;47.810;13.072;2022-07-23T04:38:13;96929.00;;;27.50
8937;BMP180;4503;47.810;13.072;2022-07-23T04:40:39;96926.00;;;27.50
8937;BMP180;4503;47.810;13.072;2022-07-23T04:43:05;96926.00;;;27.40
8937;BMP180;4503;47.810;13.072;2022-07-23T04:45:30;96906.00;;;27.40
8937;BMP180;4503;47.810;13.072;2022-07-23T04:47:56;96904.00;;;27.40
8937;BMP180;4503;47.810;13.072;2022-07-23T04:50:22;96909.00;;;27.40
8937;BMP180;4503;47.810;13.072;2022-07-23T04:52:48;96910.00;;;27.40
8937;BMP180;4503;47.810;13.072;2022-07-23T04:55:15;96910.00;;;27.40
8937;BMP180;4503;47.810;13.072;2022-07-23T04:57:41;96914.00;;;27.30
8937;BMP180;4503;47.810;13.072;2022-07-23T05:00:08;96906.00;;;27.30
8937;BMP180;4503;47.810;13.072;2022-07-23T05:02:34;96901.00;;;27.20
8937;BMP180;4503;47.810;13.072;2022-07-23T05:05:00;96889.00;;;27.20
8937;BMP180;4503;47.810;13.072;2022-07-23T05:07:26;96893.00;;;27.20
8937;BMP180;4503;47.810;13.072;2022-07-23T05:09:52;96881.00;;;27.20
8937;BMP180;4503;47.810;13.072;2022-07-23T05:12:18;96880.00;;;27.10
8937;BMP180;4503;47.810;13.072;2022-07-23T05:14:43;96880.00;;;27.10
8937;BMP180;4503;47.810;13.072;2022-07-23T05:17:09;96872.00;;;27.10
8937;BMP180;4503;47.810;13.072;2022-07-23T05:19:35;96870.00;;;27.10
8937;BMP180;4503;47.810;13.072;2022-07-23T05:22:02;96858.00;;;27.10
8937;BMP180;4503;47.810;13.072;2022-07-23T05:24:28;96846.00;;;27.10
8937;BMP180;4503;47.810;13.072;2022-07-23T05:26:53;96844.00;;;27.20
8937;BMP180;4503;47.810;13.072;2022-07-23T05:29:19;96836.00;;;27.20
8937;BMP180;4503;47.810;13.072;2022-07-23T05:31:45;96834.00;;;27.30
8937;BMP180;4503;47.810;13.072;2022-07-23T05:34:11;96835.00;;;27.30
8937;BMP180;4503;47.810;13.072;2022-07-23T05:36:37;96832.00;;;27.30
8937;BMP180;4503;47.810;13.072;2022-07-23T05:39:03;96841.00;;;27.40
8937;BMP180;4503;47.810;13.072;2022-07-23T05:41:29;96844.00;;;27.40
8937;BMP180;4503;47.810;13.072;2022-07-23T05:43:55;96844.00;;;27.40
8937;BMP180;4503;47.810;13.072;2022-07-23T05:46:21;96840.00;;;27.40
8937;BMP180;4503;47.810;13.072;2022-07-23T05:48:47;96846.00;;;27.50
8937;BMP180;4503;47.810;13.072;2022-07-23T05:51:21;96843.00;;;27.60
8937;BMP180;4503;47.810;13.072;2022-07-23T05:53:47;96832.00;;;27.70
8937;BMP180;4503;47.810;13.072;2022-07-23T05:56:13;96825.00;;;27.80
8937;BMP180;4503;47.810;13.072;2022-07-23T05:58:39;96820.00;;;27.90
8937;BMP180;4503;47.810;13.072;2022-07-23T06:01:05;96821.00;;;27.90
8937;BMP180;4503;47.810;13.072;2022-07-23T06:03:31;96822.00;;;27.90
8937;BMP180;4503;47.810;13.072;2022-07-23T06:05:57;96814.00;;;27.90
8937;BMP180;4503;47.810;13.072;2022-07-23T06:08:23;96806.00;;;27.90
8937;BMP180;4503;47.810;13.072;2022-07-23T06:10:48;96803.00;;;27.90
8937;BMP180;4503;47.810;13.072;2022-07-23T06:13:15;96795.00;;;28.00
8937;BMP180;4503;47.810;13.072;2022-07-23T06:15:42;96801.00;;;28.00
8937;BMP180;4503;47.810;13.072;2022-07-23T06:18:08;96794.00;;;28.00
8937;BMP180;4503;47.810;13.072;2022-07-23T06:20:34;96794.00;;;28.10
8937;BMP180;4503;47.810;13.072;2022-07-23T06:23:00;96790.00;;;28.10
8937;BMP180;4503;47.810;13.072;2022-07-23T06:25:27;96785.00;;;28.00
8937;BMP180;4503;47.810;13.072;2022-07-23T06:27:53;96778.00;;;28.00
8937;BMP180;4503;47.810;13.072;2022-07-23T06:32:52;96781.00;;;27.80
8937;BMP180;4503;47.810;13.072;2022-07-23T06:35:18;96786.00;;;27.80
8937;BMP180;4503;47.810;13.072;2022-07-23T06:37:44;96786.00;;;27.80
8937;BMP180;4503;47.810;13.072;2022-07-23T06:40:11;96779.00;;;27.80
8937;BMP180;4503;47.810;13.072;2022-07-23T06:42:38;96766.00;;;27.80
8937;BMP180;4503;47.810;13.072;2022-07-23T06:45:06;96761.00;;;27.90
8937;BMP180;4503;47.810;13.072;2022-07-23T06:47:32;96761.00;;;28.00
8937;BMP180;4503;47.810;13.072;2022-07-23T06:49:58;96754.00;;;28.00
8937;BMP180;4503;47.810;13.072;2022-07-23T06:52:24;96742.00;;;28.00
8937;BMP180;4503;47.810;13.072;2022-07-23T06:54:52;96715.00;;;28.00
8937;BMP180;4503;47.810;13.072;2022-07-23T06:57:18;96699.00;;;28.00
8937;BMP180;4503;47.810;13.072;2022-07-23T06:59:43;96681.00;;;28.00
8937;BMP180;4503;47.810;13.072;2022-07-23T07:02:10;96672.00;;;28.10
8937;BMP180;4503;47.810;13.072;2022-07-23T07:04:36;96691.00;;;28.20
8937;BMP180;4503;47.810;13.072;2022-07-23T07:07:02;96697.00;;;28.30
8937;BMP180;4503;47.810;13.072;2022-07-23T07:09:27;96700.00;;;28.40
8937;BMP180;4503;47.810;13.072;2022-07-23T07:11:53;96697.00;;;28.50
8937;BMP180;4503;47.810;13.072;2022-07-23T07:14:19;96706.00;;;28.60
8937;BMP180;4503;47.810;13.072;2022-07-23T07:16:45;96725.00;;;28.80
8937;BMP180;4503;47.810;13.072;2022-07-23T07:19:11;96740.00;;;28.90
8937;BMP180;4503;47.810;13.072;2022-07-23T07:21:36;96760.00;;;29.00
8937;BMP180;4503;47.810;13.072;2022-07-23T07:24:03;96763.00;;;29.10
8937;BMP180;4503;47.810;13.072;2022-07-23T07:26:29;96774.00;;;29.10
8937;BMP180;4503;47.810;13.072;2022-07-23T07:28:56;96782.00;;;29.10
8937;BMP180;4503;47.810;13.072;2022-07-23T07:31:23;96793.00;;;29.00
8937;BMP180;4503;47.810;13.072;2022-07-23T07:33:48;96802.00;;;28.90
8937;BMP180;4503;47.810;13.072;2022-07-23T07:36:14;96802.00;;;28.80
8937;BMP180;4503;47.810;13.072;2022-07-23T07:38:40;96816.00;;;28.80
8937;BMP180;4503;47.810;13.072;2022-07-23T07:41:06;96836.00;;;28.70
8937;BMP180;4503;47.810;13.072;2022-07-23T07:43:33;96820.00;;;28.70
8937;BMP180;4503;47.810;13.072;2022-07-23T07:45:59;96833.00;;;28.60
8937;BMP180;4503;47.810;13.072;2022-07-23T07:48:24;96843.00;;;28.60
8937;BMP180;4503;47.810;13.072;2022-07-23T07:50:50;96849.00;;;28.60
8937;BMP180;4503;47.810;13.072;2022-07-23T07:53:16;96856.00;;;28.50
8937;BMP180;4503;47.810;13.072;2022-07-23T07:55:42;96864.00;;;28.50
8937;BMP180;4503;47.810;13.072;2022-07-23T07:58:08;96860.00;;;28.50
8937;BMP180;4503;47.810;13.072;2022-07-23T08:00:33;96860.00;;;28.40
8937;BMP180;4503;47.810;13.072;2022-07-23T08:02:59;96871.00;;;28.30
8937;BMP180;4503;47.810;13.072;2022-07-23T08:05:30;96880.00;;;28.30
8937;BMP180;4503;47.810;13.072;2022-07-23T08:07:57;96886.00;;;28.30
8937;BMP180;4503;47.810;13.072;2022-07-23T08:10:26;96894.00;;;28.20
8937;BMP180;4503;47.810;13.072;2022-07-23T08:12:55;96878.00;;;28.20
8937;BMP180;4503;47.810;13.072;2022-07-23T08:15:27;96887.00;;;28.10
8937;BMP180;4503;47.810;13.072;2022-07-23T08:17:53;96889.00;;;28.20
8937;BMP180;4503;47.810;13.072;2022-07-23T08:20:21;96895.00;;;28.20
8937;BMP180;4503;47.810;13.072;2022-07-23T08:23:00;96897.00;;;28.30
8937;BMP180;4503;47.810;13.072;2022-07-23T08:28:00;96905.00;;;28.20
8937;BMP180;4503;47.810;13.072;2022-07-23T08:30:28;96908.00;;;28.20
8937;BMP180;4503;47.810;13.072;2022-07-23T08:33:00;96907.00;;;28.10
8937;BMP180;4503;47.810;13.072;2022-07-23T08:35:33;96914.00;;;28.20
8937;BMP180;4503;47.810;13.072;2022-07-23T08:38:03;96913.00;;;28.20
8937;BMP180;4503;47.810;13.072;2022-07-23T08:40:34;96913.00;;;28.30
8937;BMP180;4503;47.810;13.072;2022-07-23T08:43:06;96914.00;;;28.40
8937;BMP180;4503;47.810;13.072;2022-07-23T08:45:41;96906.00;;;28.50
8937;BMP180;4503;47.810;13.072;2022-07-23T08:48:19;96907.00;;;28.60
8937;BMP180;4503;47.810;13.072;2022-07-23T08:50:55;96895.00;;;28.80
8937;BMP180;4503;47.810;13.072;2022-07-23T08:53:24;96894.00;;;28.90
8937;BMP180;4503;47.810;13.072;2022-07-23T08:55:56;96890.00;;;29.00
8937;BMP180;4503;47.810;13.072;2022-07-23T08:58:23;96886.00;;;29.00
8937;BMP180;4503;47.810;13.072;2022-07-23T09:00:49;96881.00;;;29.10
8937;BMP180;4503;47.810;13.072;2022-07-23T09:03:21;96875.00;;;29.20
8937;BMP180;4503;47.810;13.072;2022-07-23T09:05:51;96869.00;;;29.40
8937;BMP180;4503;47.810;13.072;2022-07-23T09:08:21;96880.00;;;29.60
8937;BMP180;4503;47.810;13.072;2022-07-23T09:11:03;96873.00;;;29.70
8937;BMP180;4503;47.810;13.072;2022-07-23T09:13:36;96873.00;;;29.80
8937;BMP180;4503;47.810;13.072;2022-07-23T09:18:49;96870.00;;;30.10
8937;BMP180;4503;47.810;13.072;2022-07-23T09:21:27;96862.00;;;30.30
8937;BMP180;4503;47.810;13.072;2022-07-23T09:29:20;96853.00;;;31.00
8937;BMP180;4503;47.810;13.072;2022-07-23T09:31:59;96859.00;;;31.10
8937;BMP180;4503;47.810;13.072;2022-07-23T09:36:56;96867.00;;;31.10
8937;BMP180;4503;47.810;13.072;2022-07-23T09:39:33;96875.00;;;31.20
8937;BMP180;4503;47.810;13.072;2022-07-23T09:44:47;96877.00;;;31.30
8937;BMP180;4503;47.810;13.072;2022-07-23T09:47:13;96884.00;;;31.40
8937;BMP180;4503;47.810;13.072;2022-07-23T09:49:39;96877.00;;;31.40
8937;BMP180;4503;47.810;13.072;2022-07-23T09:52:05;96877.00;;;31.30
8937;BMP180;4503;47.810;13.072;2022-07-23T09:54:37;96883.00;;;31.30
8937;BMP180;4503;47.810;13.072;2022-07-23T09:57:09;96876.00;;;31.30
8937;BMP180;4503;47.810;13.072;2022-07-23T09:59:41;96883.00;;;31.20
8937;BMP180;4503;47.810;13.072;2022-07-23T10:02:11;96887.00;;;31.10
8937;BMP180;4503;47.810;13.072;2022-07-23T10:04:40;96891.00;;;31.10
8937;BMP180;4503;47.810;13.072;2022-07-23T10:07:08;96888.00;;;31.10
8937;BMP180;4503;47.810;13.072;2022-07-23T10:09:40;96891.00;;;30.70
8937;BMP180;4503;47.810;13.072;2022-07-23T10:12:13;96900.00;;;30.10
8937;BMP180;4503;47.810;13.072;2022-07-23T10:14:45;96900.00;;;29.60
8937;BMP180;4503;47.810;13.072;2022-07-23T10:17:12;96894.00;;;29.40
8937;BMP180;4503;47.810;13.072;2022-07-23T10:19:39;96894.00;;;29.30
8937;BMP180;4503;47.810;13.072;2022-07-23T10:22:12;96900.00;;;29.30
8937;BMP180;4503;47.810;13.072;2022-07-23T10:31:31;96891.00;;;29.60
8937;BMP180;4503;47.810;13.072;2022-07-23T10:37:39;96891.00;;;29.70
8937;BMP180;4503;47.810;13.072;2022-07-23T10:40:20;96891.00;;;29.90
8937;BMP180;4503;47.810;13.072;2022-07-23T10:42:51;96896.00;;;30.10
8937;BMP180;4503;47.810;13.072;2022-07-23T10:45:29;96884.00;;;30.30
8937;BMP180;4503;47.810;13.072;2022-07-23T10:48:12;96887.00;;;30.60
8937;BMP180;4503;47.810;13.072;2022-07-23T10:50:39;96892.00;;;30.80
8937;BMP180;4503;47.810;13.072;2022-07-23T10:58:02;96903.00;;;31.50
8937;BMP180;4503;47.810;13.072;2022-07-23T11:00:31;96906.00;;;31.60
8937;BMP180;4503;47.810;13.072;2022-07-23T11:03:28;96901.00;;;31.60
8937;BMP180;4503;47.810;13.072;2022-07-23T11:05:51;96904.00;;;31.70
8937;BMP180;4503;47.810;13.072;2022-07-23T11:08:21;96893.00;;;31.70
8937;BMP180;4503;47.810;13.072;2022-07-23T11:10:54;96899.00;;;31.80
8937;BMP180;4503;47.810;13.072;2022-07-23T11:24:12;96877.00;;;32.10
8937;BMP180;4503;47.810;13.072;2022-07-23T11:26:51;96872.00;;;32.20
8937;BMP180;4503;47.810;13.072;2022-07-23T11:32:24;96865.00;;;32.90
8937;BMP180;4503;47.810;13.072;2022-07-23T11:34:51;96869.00;;;33.20
8937;BMP180;4503;47.810;13.072;2022-07-23T11:37:39;96869.00;;;33.40
8937;BMP180;4503;47.810;13.072;2022-07-23T11:40:12;96862.00;;;33.40
8937;BMP180;4503;47.810;13.072;2022-07-23T11:42:56;96863.00;;;33.60
8937;BMP180;4503;47.810;13.072;2022-07-23T11:45:23;96869.00;;;33.70
8937;BMP180;4503;47.810;13.072;2022-07-23T11:47:50;96861.00;;;33.80
8937;BMP180;4503;47.810;13.072;2022-07-23T11:50:15;96869.00;;;33.90
8937;BMP180;4503;47.810;13.072;2022-07-23T11:52:41;96853.00;;;33.90
8937;BMP180;4503;47.810;13.072;2022-07-23T11:55:10;96861.00;;;33.80
8937;BMP180;4503;47.810;13.072;2022-07-23T11:57:40;96859.00;;;33.80
8937;BMP180;4503;47.810;13.072;2022-07-23T12:00:16;96863.00;;;33.80
8937;BMP180;4503;47.810;13.072;2022-07-23T12:02:49;96854.00;;;33.80
8937;BMP180;4503;47.810;13.072;2022-07-23T12:05:22;96847.00;;;33.90
8937;BMP180;4503;47.810;13.072;2022-07-23T12:07:52;96858.00;;;34.10
8937;BMP180;4503;47.810;13.072;2022-07-23T12:10:22;96848.00;;;34.30
8937;BMP180;4503;47.810;13.072;2022-07-23T12:12:55;96839.00;;;34.50
8937;BMP180;4503;47.810;13.072;2022-07-23T12:15:28;96841.00;;;34.70
8937;BMP180;4503;47.810;13.072;2022-07-23T12:17:56;96833.00;;;34.90
8937;BMP180;4503;47.810;13.072;2022-07-23T12:20:26;96825.00;;;35.20
8937;BMP180;4503;47.810;13.072;2022-07-23T12:22:57;96833.00;;;35.40
8937;BMP180;4503;47.810;13.072;2022-07-23T12:25:28;96836.00;;;35.40
8937;BMP180;4503;47.810;13.072;2022-07-23T12:28:10;96836.00;;;35.50
8937;BMP180;4503;47.810;13.072;2022-07-23T12:35:51;96840.00;;;35.40
8937;BMP180;4503;47.810;13.072;2022-07-23T12:38:21;96841.00;;;35.50
8937;BMP180;4503;47.810;13.072;2022-07-23T12:40:59;96832.00;;;35.70
8937;BMP180;4503;47.810;13.072;2022-07-23T12:43:36;96837.00;;;35.90
8937;BMP180;4503;47.810;13.072;2022-07-23T12:46:18;96836.00;;;36.00
8937;BMP180;4503;47.810;13.072;2022-07-23T12:51:26;96836.00;;;36.20
8937;BMP180;4503;47.810;13.072;2022-07-23T12:53:57;96836.00;;;36.30
8937;BMP180;4503;47.810;13.072;2022-07-23T12:56:33;96824.00;;;36.20
8937;BMP180;4503;47.810;13.072;2022-07-23T12:59:12;96830.00;;;36.10
8937;BMP180;4503;47.810;13.072;2022-07-23T13:01:55;96827.00;;;36.00
8937;BMP180;4503;47.810;13.072;2022-07-23T13:04:24;96832.00;;;35.80
8937;BMP180;4503;47.810;13.072;2022-07-23T13:06:57;96825.00;;;35.70
8937;BMP180;4503;47.810;13.072;2022-07-23T13:09:29;96825.00;;;35.50
8937;BMP180;4503;47.810;13.072;2022-07-23T13:11:57;96836.00;;;35.40
8937;BMP180;4503;47.810;13.072;2022-07-23T13:14:24;96823.00;;;35.40
8937;BMP180;4503;47.810;13.072;2022-07-23T13:16:53;96821.00;;;35.30
8937;BMP180;4503;47.810;13.072;2022-07-23T13:19:20;96818.00;;;35.30
8937;BMP180;4503;47.810;13.072;2022-07-23T13:21:49;96825.00;;;35.60
8937;BMP180;4503;47.810;13.072;2022-07-23T13:24:15;96817.00;;;35.80
8937;BMP180;4503;47.810;13.072;2022-07-23T13:26:42;96829.00;;;36.10
8937;BMP180;4503;47.810;13.072;2022-07-23T13:29:08;96824.00;;;36.40
8937;BMP180;4503;47.810;13.072;2022-07-23T13:31:35;96827.00;;;36.40
8937;BMP180;4503;47.810;13.072;2022-07-23T13:34:02;96827.00;;;36.50
8937;BMP180;4503;47.810;13.072;2022-07-23T13:36:28;96826.00;;;36.50
8937;BMP180;4503;47.810;13.072;2022-07-23T13:38:53;96829.00;;;36.60
8937;BMP180;4503;47.810;13.072;2022-07-23T13:41:19;96830.00;;;36.70
8937;BMP180;4503;47.810;13.072;2022-07-23T13:43:45;96830.00;;;36.90
8937;BMP180;4503;47.810;13.072;2022-07-23T13:46:11;96821.00;;;37.00
8937;BMP180;4503;47.810;13.072;2022-07-23T13:48:37;96824.00;;;37.00
8937;BMP180;4503;47.810;13.072;2022-07-23T13:51:03;96822.00;;;37.00
8937;BMP180;4503;47.810;13.072;2022-07-23T13:53:29;96819.00;;;37.10
8937;BMP180;4503;47.810;13.072;2022-07-23T13:55:55;96823.00;;;37.00
8937;BMP180;4503;47.810;13.072;2022-07-23T13:58:22;96830.00;;;36.90
8937;BMP180;4503;47.810;13.072;2022-07-23T14:00:52;96824.00;;;36.90
8937;BMP180;4503;47.810;13.072;2022-07-23T14:03:21;96832.00;;;36.90
8937;BMP180;4503;47.810;13.072;2022-07-23T14:05:49;96828.00;;;37.00
8937;BMP180;4503;47.810;13.072;2022-07-23T14:08:15;96835.00;;;36.90
8937;BMP180;4503;47.810;13.072;2022-07-23T14:10:40;96825.00;;;37.00
8937;BMP180;4503;47.810;13.072;2022-07-23T14:13:06;96824.00;;;37.10
8937;BMP180;4503;47.810;13.072;2022-07-23T14:15:33;96816.00;;;37.20
8937;BMP180;4503;47.810;13.072;2022-07-23T14:17:59;96819.00;;;37.10
8937;BMP180;4503;47.810;13.072;2022-07-23T14:20:25;96823.00;;;37.20
8937;BMP180;4503;47.810;13.072;2022-07-23T14:22:52;96829.00;;;37.20
8937;BMP180;4503;47.810;13.072;2022-07-23T14:25:19;96826.00;;;37.00
8937;BMP180;4503;47.810;13.072;2022-07-23T14:27:45;96826.00;;;36.90
8937;BMP180;4503;47.810;13.072;2022-07-23T14:30:12;96821.00;;;36.70
8937;BMP180;4503;47.810;13.072;2022-07-23T14:32:38;96826.00;;;36.50
8937;BMP180;4503;47.810;13.072;2022-07-23T14:35:06;96823.00;;;36.30
8937;BMP180;4503;47.810;13.072;2022-07-23T14:37:32;96825.00;;;36.30
8937;BMP180;4503;47.810;13.072;2022-07-23T14:39:58;96816.00;;;36.30
8937;BMP180;4503;47.810;13.072;2022-07-23T14:42:25;96817.00;;;36.30
8937;BMP180;4503;47.810;13.072;2022-07-23T14:44:51;96820.00;;;36.40
8937;BMP180;4503;47.810;13.072;2022-07-23T14:47:17;96818.00;;;36.50
8937;BMP180;4503;47.810;13.072;2022-07-23T14:49:43;96821.00;;;36.90
8937;BMP180;4503;47.810;13.072;2022-07-23T14:52:09;96817.00;;;38.00
8937;BMP180;4503;47.810;13.072;2022-07-23T14:54:35;96824.00;;;39.00
8937;BMP180;4503;47.810;13.072;2022-07-23T14:57:02;96817.00;;;39.50
8937;BMP180;4503;47.810;13.072;2022-07-23T14:59:30;96821.00;;;40.20
8937;BMP180;4503;47.810;13.072;2022-07-23T15:01:57;96840.00;;;41.00
8937;BMP180;4503;47.810;13.072;2022-07-23T15:04:24;96843.00;;;41.40
8937;BMP180;4503;47.810;13.072;2022-07-23T15:06:50;96845.00;;;41.40
8937;BMP180;4503;47.810;13.072;2022-07-23T15:09:16;96827.00;;;41.30
8937;BMP180;4503;47.810;13.072;2022-07-23T15:11:42;96832.00;;;40.90
8937;BMP180;4503;47.810;13.072;2022-07-23T15:14:08;96828.00;;;40.70
8937;BMP180;4503;47.810;13.072;2022-07-23T15:16:35;96841.00;;;40.40
8937;BMP180;4503;47.810;13.072;2022-07-23T15:19:03;96820.00;;;40.20